createdAt,value
2018-08-04T00:01:40.691Z,21.60
2018-08-04T00:04:09.347Z,21.50
2018-08-04T00:09:09.680Z,21.40
2018-08-04T00:11:38.279Z,21.40
2018-08-04T00:14:06.949Z,21.40
2018-08-04T00:16:35.737Z,21.50
2018-08-04T00:19:04.487Z,21.50
2018-08-04T00:21:33.060Z,21.50
2018-08-04T00:26:32.169Z,21.60
2018-08-04T00:29:01.765Z,21.60
2018-08-04T00:31:32.050Z,21.60
2018-08-04T00:34:00.619Z,21.60
2018-08-04T00:36:29.255Z,21.60
2018-08-04T00:38:57.860Z,21.50
2018-08-04T00:41:26.468Z,21.50
2018-08-04T00:43:55.022Z,21.30
2018-08-04T00:46:23.571Z,21.20
2018-08-04T00:48:52.326Z,21.20
2018-08-04T00:51:20.944Z,21.20
2018-08-04T00:53:49.478Z,21.20
2018-08-04T00:56:17.998Z,21.20
2018-08-04T00:58:46.578Z,21.20
2018-08-04T01:03:43.371Z,21.20
2018-08-04T01:06:11.926Z,21.30
2018-08-04T01:08:40.448Z,21.30
2018-08-04T01:11:08.986Z,21.30
2018-08-04T01:13:37.533Z,21.20
2018-08-04T01:16:06.245Z,21.00
2018-08-04T01:18:34.819Z,21.00
2018-08-04T01:21:03.404Z,20.90
2018-08-04T01:23:31.938Z,20.90
2018-08-04T01:26:00.482Z,20.90
2018-08-04T01:28:29.036Z,20.80
2018-08-04T01:35:54.143Z,20.80
2018-08-04T01:38:22.731Z,20.80
2018-08-04T01:40:51.303Z,20.80
2018-08-04T01:43:19.867Z,20.80
2018-08-04T01:45:48.497Z,20.80
2018-08-04T01:48:17.049Z,20.90
2018-08-04T01:50:45.609Z,20.90
2018-08-04T01:53:14.133Z,20.90
2018-08-04T01:55:42.673Z,20.80
2018-08-04T02:00:39.381Z,20.80
2018-08-04T02:03:07.930Z,20.80
2018-08-04T02:05:36.478Z,20.80
2018-08-04T02:08:05.008Z,20.70
2018-08-04T02:10:33.597Z,20.70
2018-08-04T02:13:02.132Z,20.70
2018-08-04T02:15:30.693Z,20.80
2018-08-04T02:17:59.219Z,20.70
2018-08-04T02:20:27.792Z,20.70
2018-08-04T02:22:56.385Z,20.70
2018-08-04T02:25:24.931Z,20.70
2018-08-04T02:27:53.491Z,20.70
2018-08-04T02:35:18.392Z,20.60
2018-08-04T02:37:46.935Z,20.60
2018-08-04T02:40:15.473Z,20.50
2018-08-04T02:42:44.032Z,20.50
2018-08-04T02:45:12.592Z,20.60
2018-08-04T02:47:41.131Z,20.60
2018-08-04T02:50:09.884Z,20.60
2018-08-04T02:52:38.428Z,20.50
2018-08-04T02:55:07.020Z,20.50
2018-08-04T02:57:35.602Z,20.40
2018-08-04T03:00:04.440Z,20.40
2018-08-04T03:02:33.006Z,20.40
2018-08-04T03:05:01.556Z,20.40
2018-08-04T03:07:30.124Z,20.50
2018-08-04T03:09:58.738Z,20.50
2018-08-04T03:12:27.268Z,20.50
2018-08-04T03:14:55.833Z,20.50
2018-08-04T03:19:52.549Z,20.40
2018-08-04T03:22:21.124Z,20.40
2018-08-04T03:24:49.681Z,20.40
2018-08-04T03:27:18.189Z,20.50
2018-08-04T03:29:46.775Z,20.50
2018-08-04T03:32:15.319Z,20.50
2018-08-04T03:34:43.874Z,20.50
2018-08-04T03:37:12.465Z,20.60
2018-08-04T03:39:41.013Z,20.60
2018-08-04T03:42:09.592Z,20.50
2018-08-04T03:47:06.779Z,20.50
2018-08-04T03:54:31.735Z,20.40
2018-08-04T03:57:00.313Z,20.40
2018-08-04T04:04:25.256Z,20.20
2018-08-04T04:06:53.807Z,20.20
2018-08-04T04:09:24.649Z,20.20
2018-08-04T04:11:55.509Z,20.10
2018-08-04T04:14:24.050Z,20.10
2018-08-04T04:16:52.573Z,20.10
2018-08-04T04:19:21.108Z,20.10
2018-08-04T04:21:49.678Z,20.10
2018-08-04T04:24:18.240Z,20.10
2018-08-04T04:26:46.802Z,20.20
2018-08-04T04:29:15.327Z,20.30
2018-08-04T04:31:43.854Z,20.30
2018-08-04T04:34:12.424Z,20.30
2018-08-04T04:36:40.960Z,20.30
2018-08-04T04:39:10.716Z,20.20
2018-08-04T04:41:39.948Z,20.20
2018-08-04T04:44:08.934Z,20.20
2018-08-04T04:46:40.742Z,20.20
2018-08-04T04:49:11.628Z,20.20
2018-08-04T04:51:41.060Z,20.30
2018-08-04T04:54:09.600Z,20.30
2018-08-04T04:56:38.180Z,20.30
2018-08-04T04:59:06.719Z,20.40
2018-08-04T05:01:35.279Z,20.30
2018-08-04T05:04:03.861Z,20.30
2018-08-04T05:06:32.399Z,20.30
2018-08-04T05:09:00.986Z,20.30
2018-08-04T05:11:29.542Z,20.30
2018-08-04T05:13:58.090Z,20.30
2018-08-04T05:16:26.684Z,20.30
2018-08-04T05:21:23.438Z,20.40
2018-08-04T05:23:52.020Z,20.50
2018-08-04T05:26:20.618Z,20.50
2018-08-04T05:31:17.501Z,20.40
2018-08-04T05:33:46.089Z,20.40
2018-08-04T05:36:14.634Z,20.50
2018-08-04T05:38:43.214Z,20.50
2018-08-04T05:41:11.774Z,20.60
2018-08-04T05:43:40.374Z,20.60
2018-08-04T05:46:08.896Z,20.70
2018-08-04T05:48:37.448Z,20.70
2018-08-04T05:51:06.440Z,20.70
2018-08-04T05:53:35.047Z,20.80
2018-08-04T05:56:03.642Z,20.90
2018-08-04T05:58:32.203Z,20.90
2018-08-04T06:01:00.866Z,21.00
2018-08-04T06:03:29.488Z,21.20
2018-08-04T06:05:57.993Z,21.40
2018-08-04T06:08:26.541Z,21.70
2018-08-04T06:10:55.089Z,22.00
2018-08-04T06:13:23.643Z,22.20
2018-08-04T06:15:52.183Z,22.60
2018-08-04T06:23:17.128Z,23.30
2018-08-04T06:28:13.890Z,23.40
2018-08-04T06:33:10.625Z,23.60
2018-08-04T06:35:39.321Z,23.70
2018-08-04T06:38:07.883Z,23.80
2018-08-04T06:40:36.497Z,23.90
2018-08-04T06:43:05.086Z,24.10
2018-08-04T06:45:33.731Z,24.30
2018-08-04T06:48:02.277Z,24.40
2018-08-04T06:50:30.819Z,24.50
2018-08-04T06:52:59.440Z,24.60
2018-08-04T06:55:27.978Z,24.60
2018-08-04T06:57:56.525Z,24.70
2018-08-04T07:00:25.126Z,24.90
2018-08-04T07:02:53.687Z,25.00
2018-08-04T07:05:22.229Z,25.20
2018-08-04T07:07:51.411Z,25.20
2018-08-04T07:10:20.021Z,25.40
2018-08-04T07:12:48.611Z,25.50
2018-08-04T07:15:17.147Z,25.70
2018-08-04T07:17:45.720Z,25.80
2018-08-04T07:20:14.314Z,26.00
2018-08-04T07:22:42.902Z,26.00
2018-08-04T07:25:11.454Z,26.00
2018-08-04T07:27:39.992Z,26.20
2018-08-04T07:30:12.120Z,26.30
2018-08-04T07:32:41.341Z,26.50
2018-08-04T07:35:10.106Z,26.70
2018-08-04T07:37:38.862Z,26.90
2018-08-04T07:42:35.801Z,27.20
2018-08-04T07:45:04.614Z,27.30
2018-08-04T07:50:01.494Z,27.30
2018-08-04T07:52:30.705Z,27.40
2018-08-04T07:55:00.149Z,27.40
2018-08-04T07:57:28.845Z,27.60
2018-08-04T07:59:57.421Z,27.60
2018-08-04T08:02:25.992Z,27.60
2018-08-04T08:04:54.555Z,27.60
2018-08-04T08:07:24.587Z,27.60
2018-08-04T08:09:53.791Z,27.60
2018-08-04T08:12:22.610Z,27.70
2018-08-04T08:14:51.123Z,27.90
2018-08-04T08:17:19.679Z,27.90
2018-08-04T08:19:48.295Z,27.90
2018-08-04T08:22:16.873Z,28.00
2018-08-04T08:24:45.507Z,28.00
2018-08-04T08:29:42.274Z,28.10
2018-08-04T08:32:10.858Z,28.30
2018-08-04T08:37:07.731Z,28.20
2018-08-04T08:42:04.536Z,28.30
2018-08-04T08:44:33.094Z,28.40
2018-08-04T08:47:01.660Z,28.60
2018-08-04T08:49:30.212Z,28.60
2018-08-04T08:51:58.712Z,28.70
2018-08-04T08:54:27.224Z,28.80
2018-08-04T08:56:55.764Z,29.00
2018-08-04T08:59:24.347Z,29.10
2018-08-04T09:01:52.938Z,29.40
2018-08-04T09:04:21.500Z,29.40
2018-08-04T09:06:50.063Z,29.50
2018-08-04T09:09:18.631Z,29.50
2018-08-04T09:11:47.203Z,29.70
2018-08-04T09:14:15.750Z,29.80
2018-08-04T09:16:44.307Z,30.00
2018-08-04T09:21:41.045Z,30.50
2018-08-04T09:24:09.641Z,30.70
2018-08-04T09:26:38.176Z,30.80
2018-08-04T09:29:06.692Z,30.90
2018-08-04T09:31:35.299Z,31.00
2018-08-04T09:34:03.903Z,31.20
2018-08-04T09:36:32.462Z,31.20
2018-08-04T09:39:01.036Z,31.30
2018-08-04T09:41:29.645Z,31.20
2018-08-04T09:43:58.221Z,31.10
2018-08-04T09:46:26.803Z,31.20
2018-08-04T09:48:55.331Z,31.40
2018-08-04T09:51:23.872Z,31.60
2018-08-04T09:53:52.430Z,31.70
2018-08-04T09:56:20.968Z,31.70
2018-08-04T09:58:49.533Z,31.70
2018-08-04T10:01:23.216Z,31.70
2018-08-04T10:03:51.815Z,31.70
2018-08-04T10:06:20.477Z,31.90
2018-08-04T10:11:17.306Z,32.30
2018-08-04T10:13:45.818Z,32.30
2018-08-04T10:16:14.387Z,32.40
2018-08-04T10:18:43.243Z,32.60
2018-08-04T10:21:12.165Z,32.60
2018-08-04T10:23:41.005Z,32.30
2018-08-04T10:26:09.615Z,32.30
2018-08-04T10:28:38.196Z,32.10
2018-08-04T10:31:06.840Z,32.00
2018-08-04T10:33:35.522Z,32.00
2018-08-04T10:36:05.018Z,32.10
2018-08-04T10:38:33.627Z,32.10
2018-08-04T10:41:02.180Z,32.30
2018-08-04T10:43:30.808Z,32.30
2018-08-04T10:45:59.434Z,32.30
2018-08-04T10:48:27.974Z,32.20
2018-08-04T10:50:56.554Z,31.90
2018-08-04T10:53:25.108Z,31.80
2018-08-04T10:55:53.656Z,31.90
2018-08-04T11:00:50.475Z,32.00
2018-08-04T11:03:19.088Z,32.20
2018-08-04T11:05:47.680Z,32.40
2018-08-04T11:08:16.350Z,32.70
2018-08-04T11:10:44.917Z,32.80
2018-08-04T11:13:13.549Z,33.10
2018-08-04T11:15:42.069Z,33.30
2018-08-04T11:18:10.646Z,33.50
2018-08-04T11:23:07.370Z,33.60
2018-08-04T11:25:35.985Z,33.80
2018-08-04T11:28:04.607Z,34.00
2018-08-04T11:30:33.163Z,34.20
2018-08-04T11:33:01.686Z,34.50
2018-08-04T11:35:30.234Z,34.50
2018-08-04T11:37:59.031Z,34.80
2018-08-04T11:40:27.577Z,34.80
2018-08-04T11:42:56.147Z,34.80
2018-08-04T11:45:24.713Z,34.80
2018-08-04T11:50:21.531Z,35.10
2018-08-04T11:52:50.179Z,35.20
2018-08-04T11:55:18.811Z,35.10
2018-08-04T11:57:47.315Z,35.10
2018-08-04T12:00:15.875Z,35.30
2018-08-04T12:02:44.465Z,35.50
2018-08-04T12:05:13.045Z,35.40
2018-08-04T12:07:41.583Z,35.50
2018-08-04T12:10:10.174Z,35.50
2018-08-04T12:12:38.781Z,35.60
2018-08-04T12:15:07.421Z,35.50
2018-08-04T12:17:36.006Z,35.60
2018-08-04T12:20:04.896Z,35.70
2018-08-04T12:22:33.443Z,35.80
2018-08-04T12:25:02.058Z,35.80
2018-08-04T12:27:30.600Z,35.70
2018-08-04T12:32:27.306Z,35.70
2018-08-04T12:34:55.874Z,35.90
2018-08-04T12:37:24.503Z,36.10
2018-08-04T12:39:53.030Z,36.30
2018-08-04T12:42:21.575Z,36.40
2018-08-04T12:44:50.136Z,36.40
2018-08-04T12:47:18.703Z,36.40
2018-08-04T12:49:47.406Z,36.40
2018-08-04T12:52:15.985Z,36.40
2018-08-04T12:54:44.533Z,36.20
2018-08-04T12:57:13.089Z,36.10
2018-08-04T12:59:41.671Z,36.00
2018-08-04T13:02:10.309Z,36.10
2018-08-04T13:04:39.195Z,36.00
2018-08-04T13:07:07.900Z,36.10
2018-08-04T13:09:40.731Z,36.20
2018-08-04T13:12:10.979Z,36.20
2018-08-04T13:14:39.579Z,36.30
2018-08-04T13:17:08.177Z,36.40
2018-08-04T13:19:36.749Z,36.20
2018-08-04T13:22:05.511Z,36.40
2018-08-04T13:27:02.415Z,36.30
2018-08-04T13:29:31.129Z,36.40
2018-08-04T13:31:59.830Z,36.40
2018-08-04T13:34:28.423Z,36.50
2018-08-04T13:36:57.285Z,36.20
2018-08-04T13:39:25.911Z,36.10
2018-08-04T13:41:54.732Z,36.30
2018-08-04T13:44:23.472Z,36.30
2018-08-04T13:49:20.405Z,36.20
2018-08-04T13:51:48.980Z,36.20
2018-08-04T13:54:17.567Z,36.30
2018-08-04T13:56:46.097Z,36.40
2018-08-04T13:59:14.644Z,36.50
2018-08-04T14:01:43.226Z,36.60
2018-08-04T14:04:11.786Z,36.50
2018-08-04T14:06:40.361Z,36.50
2018-08-04T14:11:38.250Z,36.50
2018-08-04T14:14:06.842Z,36.50
2018-08-04T14:16:35.470Z,36.60
2018-08-04T14:19:04.079Z,36.80
2018-08-04T14:21:32.657Z,36.80
2018-08-04T14:24:01.185Z,36.80
2018-08-04T14:26:29.731Z,36.70
2018-08-04T14:28:58.315Z,37.00
2018-08-04T14:31:26.895Z,37.30
2018-08-04T14:33:55.497Z,37.50
2018-08-04T14:36:24.041Z,37.60
2018-08-04T14:38:52.564Z,37.90
2018-08-04T14:41:21.113Z,38.20
2018-08-04T14:43:49.674Z,38.50
2018-08-04T14:46:18.228Z,38.50
2018-08-04T14:48:46.756Z,38.60
2018-08-04T14:51:15.428Z,38.40
2018-08-04T14:53:44.003Z,38.30
2018-08-04T14:56:12.540Z,38.10
2018-08-04T14:58:41.060Z,38.10
2018-08-04T15:01:09.560Z,38.40
2018-08-04T15:03:38.080Z,38.50
2018-08-04T15:08:34.760Z,39.20
2018-08-04T15:11:03.340Z,38.90
2018-08-04T15:16:00.080Z,39.70
2018-08-04T15:18:28.653Z,39.40
2018-08-04T15:20:57.216Z,38.90
2018-08-04T15:23:25.756Z,38.20
2018-08-04T15:25:54.324Z,38.20
2018-08-04T15:28:22.876Z,38.10
2018-08-04T15:30:51.479Z,37.90
2018-08-04T15:33:20.105Z,37.60
2018-08-04T15:35:48.612Z,37.30
2018-08-04T15:38:17.157Z,37.10
2018-08-04T15:40:45.748Z,36.70
2018-08-04T15:43:14.346Z,36.60
2018-08-04T15:45:42.920Z,36.20
2018-08-04T15:48:11.457Z,36.00
2018-08-04T15:50:40.015Z,35.70
2018-08-04T15:53:08.560Z,35.70
2018-08-04T15:55:37.091Z,35.50
2018-08-04T16:00:33.844Z,35.20
2018-08-04T16:03:02.401Z,35.10
2018-08-04T16:05:31.062Z,35.00
2018-08-04T16:07:59.623Z,34.80
2018-08-04T16:10:28.162Z,34.50
2018-08-04T16:12:56.697Z,34.20
2018-08-04T16:17:53.498Z,33.90
2018-08-04T16:20:22.060Z,33.70
2018-08-04T16:22:50.761Z,33.70
2018-08-04T16:25:19.314Z,33.60
2018-08-04T16:27:47.906Z,33.40
2018-08-04T16:30:16.617Z,33.30
2018-08-04T16:32:45.248Z,33.30
2018-08-04T16:35:13.847Z,33.20
2018-08-04T16:37:42.418Z,33.10
2018-08-04T16:40:11.013Z,33.00
2018-08-04T16:42:39.585Z,32.80
2018-08-04T16:45:08.200Z,32.70
2018-08-04T16:47:36.747Z,32.50
2018-08-04T16:50:05.339Z,32.40
2018-08-04T16:52:33.919Z,32.30
2018-08-04T16:55:02.454Z,32.30
2018-08-04T16:57:31.040Z,32.30
2018-08-04T16:59:59.689Z,32.30
2018-08-04T17:02:28.262Z,32.20
2018-08-04T17:04:56.822Z,32.10
2018-08-04T17:07:25.482Z,32.10
2018-08-04T17:09:54.023Z,32.10
2018-08-04T17:14:50.824Z,32.10
2018-08-04T17:17:19.437Z,32.00
2018-08-04T17:19:47.981Z,32.00
2018-08-04T17:22:16.523Z,31.90
2018-08-04T17:24:45.095Z,31.90
2018-08-04T17:27:13.626Z,31.90
2018-08-04T17:29:42.215Z,31.70
2018-08-04T17:34:39.029Z,31.60
2018-08-04T17:37:07.628Z,31.50
2018-08-04T17:39:36.316Z,31.50
2018-08-04T17:42:04.925Z,31.50
2018-08-04T17:44:36.550Z,31.40
2018-08-04T17:47:05.148Z,31.20
2018-08-04T17:49:33.733Z,31.30
2018-08-04T17:52:02.356Z,31.30
2018-08-04T17:59:27.354Z,31.00
2018-08-04T18:01:55.937Z,30.80
2018-08-04T18:04:24.615Z,30.70
2018-08-04T18:06:53.203Z,30.50
2018-08-04T18:09:21.780Z,30.40
2018-08-04T18:11:51.140Z,30.30
2018-08-04T18:14:19.671Z,30.10
2018-08-04T18:16:48.206Z,30.00
2018-08-04T18:19:16.777Z,29.90
2018-08-04T18:21:45.354Z,29.80
2018-08-04T18:24:13.876Z,29.60
2018-08-04T18:26:42.607Z,29.40
2018-08-04T18:29:11.136Z,29.30
2018-08-04T18:31:39.786Z,29.10
2018-08-04T18:34:08.401Z,29.00
2018-08-04T18:36:36.991Z,28.90
2018-08-04T18:39:07.420Z,28.90
2018-08-04T18:41:35.952Z,28.80
2018-08-04T18:44:04.577Z,28.70
2018-08-04T18:46:33.129Z,28.60
2018-08-04T18:51:29.861Z,28.60
2018-08-04T18:53:58.411Z,28.60
2018-08-04T18:56:26.991Z,28.50
2018-08-04T19:03:52.213Z,28.20
2018-08-04T19:06:20.764Z,28.20
2018-08-04T19:08:49.312Z,28.10
2018-08-04T19:13:46.053Z,27.90
2018-08-04T19:16:14.670Z,27.90
2018-08-04T19:18:43.166Z,27.90
2018-08-04T19:21:11.720Z,27.90
2018-08-04T19:23:40.300Z,27.90
2018-08-04T19:26:08.866Z,27.90
2018-08-04T19:28:37.451Z,27.80
2018-08-04T19:31:06.075Z,27.70
2018-08-04T19:33:34.630Z,27.60
2018-08-04T19:36:03.209Z,27.50
2018-08-04T19:38:31.752Z,27.40
2018-08-04T19:45:56.609Z,27.20
2018-08-04T19:48:25.165Z,27.20
2018-08-04T19:50:53.720Z,27.10
2018-08-04T19:53:22.274Z,27.10
2018-08-04T19:55:50.809Z,27.20
2018-08-04T19:58:19.381Z,27.10
2018-08-04T20:00:47.915Z,27.00
2018-08-04T20:05:44.620Z,26.80
2018-08-04T20:08:13.191Z,26.70
2018-08-04T20:10:41.732Z,26.70
2018-08-04T20:13:10.280Z,26.70
2018-08-04T20:15:38.813Z,26.70
2018-08-04T20:18:07.386Z,26.70
2018-08-04T20:20:35.944Z,26.60
2018-08-04T20:23:04.671Z,26.50
2018-08-04T20:25:33.285Z,26.50
2018-08-04T20:28:02.006Z,26.50
2018-08-04T20:30:30.528Z,26.50
2018-08-04T20:32:59.115Z,26.60
2018-08-04T20:35:27.650Z,26.60
2018-08-04T20:37:56.192Z,26.60
2018-08-04T20:40:24.854Z,26.50
2018-08-04T20:42:53.392Z,26.40
2018-08-04T20:47:50.105Z,26.30
2018-08-04T20:50:18.659Z,26.30
2018-08-04T20:52:47.256Z,26.30
2018-08-04T20:57:44.026Z,26.30
2018-08-04T21:00:12.550Z,26.20
2018-08-04T21:02:41.110Z,26.20
2018-08-04T21:05:09.722Z,26.20
2018-08-04T21:07:38.280Z,26.20
2018-08-04T21:10:06.897Z,26.20
2018-08-04T21:12:35.453Z,26.20
2018-08-04T21:15:04.066Z,26.20
2018-08-04T21:17:32.580Z,26.10
2018-08-04T21:20:01.088Z,26.00
2018-08-04T21:27:25.944Z,25.90
2018-08-04T21:29:54.487Z,25.80
2018-08-04T21:32:23.033Z,25.70
2018-08-04T21:34:51.573Z,25.70
2018-08-04T21:37:20.095Z,25.70
2018-08-04T21:39:48.656Z,25.60
2018-08-04T21:42:17.161Z,25.50
2018-08-04T21:44:45.713Z,25.50
2018-08-04T21:47:14.312Z,25.40
2018-08-04T21:49:42.873Z,25.30
2018-08-04T21:52:11.459Z,25.20
2018-08-04T21:54:39.978Z,25.20
2018-08-04T22:04:33.149Z,25.10
2018-08-04T22:07:41.539Z,25.00
2018-08-04T22:10:10.819Z,24.90
2018-08-04T22:15:09.745Z,24.80
2018-08-04T22:17:38.269Z,24.70
2018-08-04T22:20:08.289Z,24.60
2018-08-04T22:22:37.356Z,24.50
2018-08-04T22:25:07.356Z,24.50
2018-08-04T22:27:35.954Z,24.50
2018-08-04T22:30:05.346Z,24.50
2018-08-04T22:32:33.890Z,24.60
2018-08-04T22:35:02.572Z,24.60
2018-08-04T22:37:31.200Z,24.60
2018-08-04T22:39:59.728Z,24.50
2018-08-04T22:42:28.306Z,24.40
2018-08-04T22:45:07.026Z,24.30
2018-08-04T22:47:35.530Z,24.30
2018-08-04T22:50:04.221Z,24.20
2018-08-04T22:52:32.782Z,24.20
2018-08-04T22:55:01.268Z,24.10
2018-08-04T22:57:29.784Z,24.00
2018-08-04T22:59:58.340Z,23.90
2018-08-04T23:04:55.027Z,24.10
2018-08-04T23:07:23.571Z,24.20
2018-08-04T23:09:52.629Z,24.20
2018-08-04T23:12:21.152Z,24.10
2018-08-04T23:14:49.691Z,24.00
2018-08-04T23:17:18.227Z,23.90
2018-08-04T23:19:46.736Z,23.80
2018-08-04T23:22:15.329Z,23.80
2018-08-04T23:24:43.821Z,23.80
2018-08-04T23:27:12.336Z,23.80
2018-08-04T23:29:40.889Z,23.80
2018-08-04T23:32:09.431Z,23.80
2018-08-04T23:34:37.936Z,23.80
2018-08-04T23:37:06.490Z,23.70
2018-08-04T23:39:35.016Z,23.60
2018-08-04T23:42:03.552Z,23.60
2018-08-04T23:44:32.096Z,23.50
2018-08-04T23:49:28.790Z,23.50
2018-08-04T23:51:57.321Z,23.50
2018-08-04T23:54:25.835Z,23.50
2018-08-04T23:56:54.392Z,23.40
2018-08-04T23:59:22.904Z,23.40
